Terminal Aerodrome Forecast
Issued by NWS Louisville, KY

Home | Current Version | Previous Version | Text Only | Print | Product List | Glossary On
Versions: 1 2 3 4 5 6 7 8 9 10 11 12 13
000
FTUS43 KLMK 131723
TAFSDF
TAF
KSDF 131723Z 1318/1424 20015G25KT P6SM BKN070
     FM132200 23020G28KT P6SM SCT250
     FM140200 26020G28KT P6SM BKN040
     FM140600 29017KT P6SM BKN035
     FM141200 32009KT P6SM FEW025
     FM141600 35008KT P6SM SCT200=

USA.gov is the U.S. government's official web portal to all federal, state and local government web resources and services.